createdAt,value
2022-11-27T00:01:54.204Z,3.20
2022-11-27T00:04:20.718Z,3.10
2022-11-27T00:06:47.282Z,3.00
2022-11-27T00:09:15.154Z,2.90
2022-11-27T00:11:42.516Z,2.90
2022-11-27T00:14:13.115Z,2.80
2022-11-27T00:16:39.734Z,2.80
2022-11-27T00:19:06.245Z,2.80
2022-11-27T00:21:33.921Z,2.70
2022-11-27T00:24:01.637Z,2.60
2022-11-27T00:26:33.092Z,2.50
2022-11-27T00:29:03.203Z,2.50
2022-11-27T00:31:32.124Z,2.50
2022-11-27T00:33:59.950Z,2.50
2022-11-27T00:36:27.624Z,2.40
2022-11-27T00:38:54.224Z,2.30
2022-11-27T00:41:22.002Z,2.20
2022-11-27T00:43:48.710Z,2.20
2022-11-27T00:46:16.244Z,2.10
2022-11-27T00:48:43.267Z,2.10
2022-11-27T00:51:11.192Z,2.20
2022-11-27T00:53:37.800Z,2.30
2022-11-27T00:56:04.566Z,2.20
2022-11-27T00:58:31.344Z,2.10
2022-11-27T01:00:59.463Z,2.00
2022-11-27T01:03:26.395Z,2.00
2022-11-27T01:05:52.958Z,1.90
2022-11-27T01:08:19.941Z,1.90
2022-11-27T01:10:55.025Z,1.90
2022-11-27T01:13:26.221Z,1.90
2022-11-27T01:16:00.004Z,2.00
2022-11-27T01:18:27.051Z,1.90
2022-11-27T01:20:54.102Z,1.90
2022-11-27T01:23:20.895Z,1.80
2022-11-27T01:25:48.159Z,1.70
2022-11-27T01:28:15.163Z,1.70
2022-11-27T01:30:41.768Z,1.60
2022-11-27T01:33:08.349Z,1.50
2022-11-27T01:35:34.880Z,1.40
2022-11-27T01:38:01.458Z,1.30
2022-11-27T01:40:27.988Z,1.30
2022-11-27T01:42:54.519Z,1.30
2022-11-27T01:45:21.948Z,1.30
2022-11-27T01:47:53.162Z,1.40
2022-11-27T01:50:30.215Z,1.50
2022-11-27T01:53:02.011Z,1.50
2022-11-27T01:55:34.003Z,1.40
2022-11-27T01:58:09.436Z,1.30
2022-11-27T02:00:36.338Z,1.20
2022-11-27T02:03:02.960Z,1.20
2022-11-27T02:05:29.966Z,1.20
2022-11-27T02:07:57.644Z,1.20
2022-11-27T02:10:29.023Z,1.20
2022-11-27T02:13:18.201Z,1.20
2022-11-27T02:16:05.230Z,1.30
2022-11-27T02:18:40.531Z,1.30
2022-11-27T02:21:13.888Z,1.30
2022-11-27T02:23:46.421Z,1.40
2022-11-27T02:26:29.638Z,1.40
2022-11-27T02:29:04.166Z,1.30
2022-11-27T02:31:33.583Z,1.20
2022-11-27T02:34:05.718Z,1.30
2022-11-27T02:36:34.373Z,1.30
2022-11-27T02:39:07.644Z,1.20
2022-11-27T02:41:38.584Z,1.30
2022-11-27T02:44:07.408Z,1.20
2022-11-27T02:46:34.169Z,1.20
2022-11-27T02:49:06.425Z,1.20
2022-11-27T02:51:37.216Z,1.10
2022-11-27T02:54:05.126Z,1.20
2022-11-27T02:56:33.066Z,1.20
2022-11-27T02:59:01.250Z,1.10
2022-11-27T03:01:29.539Z,1.00
2022-11-27T03:03:57.681Z,1.00
2022-11-27T03:06:27.515Z,0.90
2022-11-27T03:08:57.479Z,0.90
2022-11-27T03:11:24.628Z,0.90
2022-11-27T03:13:53.595Z,0.90
2022-11-27T03:16:20.310Z,0.80
2022-11-27T03:18:55.300Z,0.80
2022-11-27T03:21:28.916Z,0.80
2022-11-27T03:23:55.580Z,0.80
2022-11-27T03:26:22.106Z,0.80
2022-11-27T03:28:50.245Z,0.80
2022-11-27T03:31:17.028Z,0.80
2022-11-27T03:33:43.751Z,0.80
2022-11-27T03:36:12.162Z,0.80
2022-11-27T03:38:38.717Z,0.80
2022-11-27T03:41:09.870Z,0.80
2022-11-27T03:43:41.870Z,0.80
2022-11-27T03:46:10.915Z,0.80
2022-11-27T03:48:48.580Z,0.70
2022-11-27T03:51:20.105Z,0.80
2022-11-27T03:54:06.542Z,0.80
2022-11-27T04:00:02.772Z,0.70
2022-11-27T04:02:32.302Z,0.70
2022-11-27T04:04:58.969Z,0.70
2022-11-27T04:07:25.703Z,0.70
2022-11-27T04:09:52.282Z,0.80
2022-11-27T04:12:18.825Z,0.70
2022-11-27T04:14:45.352Z,0.60
2022-11-27T04:17:11.865Z,0.50
2022-11-27T04:19:38.426Z,0.50
2022-11-27T04:22:04.948Z,0.40
2022-11-27T04:24:31.498Z,0.50
2022-11-27T04:26:58.025Z,0.40
2022-11-27T04:29:24.585Z,0.40
2022-11-27T04:31:51.221Z,0.40
2022-11-27T04:34:17.799Z,0.30
2022-11-27T04:36:46.132Z,0.20
2022-11-27T04:39:13.281Z,0.20
2022-11-27T04:41:40.086Z,0.30
2022-11-27T04:44:06.765Z,0.30
2022-11-27T04:46:33.404Z,0.30
2022-11-27T04:48:59.967Z,0.40
2022-11-27T04:51:26.585Z,0.40
2022-11-27T04:53:53.114Z,0.50
2022-11-27T04:56:19.692Z,0.50
2022-11-27T04:58:46.293Z,0.60
2022-11-27T05:01:12.885Z,0.40
2022-11-27T05:03:39.561Z,0.40
2022-11-27T05:06:06.214Z,0.40
2022-11-27T05:08:33.453Z,0.50
2022-11-27T05:11:07.161Z,0.40
2022-11-27T05:13:34.300Z,0.40
2022-11-27T05:16:00.948Z,0.40
2022-11-27T05:18:27.524Z,0.30
2022-11-27T05:21:01.888Z,0.20
2022-11-27T05:23:28.752Z,0.20
2022-11-27T05:25:55.664Z,0.20
2022-11-27T05:28:26.637Z,0.20
2022-11-27T05:30:53.674Z,0.20
2022-11-27T05:33:20.336Z,0.30
2022-11-27T05:35:46.848Z,0.30
2022-11-27T05:38:13.381Z,0.20
2022-11-27T05:40:39.960Z,0.10
2022-11-27T05:43:07.013Z,0.10
2022-11-27T05:45:33.557Z,0.20
2022-11-27T05:48:00.091Z,0.20
2022-11-27T05:50:26.788Z,0.20
2022-11-27T05:52:53.295Z,0.20
2022-11-27T05:55:19.837Z,0.10
2022-11-27T05:57:46.365Z,0.00
2022-11-27T06:00:14.083Z,-0.10
2022-11-27T06:02:40.855Z,-0.20
2022-11-27T06:05:07.824Z,-0.20
2022-11-27T06:07:34.409Z,-0.20
2022-11-27T06:10:01.017Z,-0.20
2022-11-27T06:12:27.576Z,-0.10
2022-11-27T06:14:54.111Z,-0.10
2022-11-27T06:17:20.740Z,-0.10
2022-11-27T06:19:47.297Z,-0.10
2022-11-27T06:22:13.916Z,0.00
2022-11-27T06:24:40.813Z,0.00
2022-11-27T06:27:07.636Z,0.00
2022-11-27T06:29:34.201Z,0.00
2022-11-27T06:32:00.790Z,-0.20
2022-11-27T06:34:27.420Z,-0.30
2022-11-27T06:36:53.956Z,-0.30
2022-11-27T06:39:20.479Z,-0.20
2022-11-27T06:41:47.122Z,-0.20
2022-11-27T06:44:13.683Z,-0.20
2022-11-27T06:46:40.301Z,-0.10
2022-11-27T06:49:06.831Z,-0.10
2022-11-27T06:51:33.368Z,-0.10
2022-11-27T06:54:00.941Z,-0.10
2022-11-27T06:56:28.665Z,-0.20
2022-11-27T06:58:56.449Z,-0.20
2022-11-27T07:01:24.060Z,-0.20
2022-11-27T07:03:50.761Z,-0.20
2022-11-27T07:06:21.946Z,-0.10
2022-11-27T07:08:50.284Z,-0.20
2022-11-27T07:11:18.390Z,-0.10
2022-11-27T07:13:45.372Z,-0.20
2022-11-27T07:16:12.823Z,-0.10
2022-11-27T07:18:41.406Z,-0.20
2022-11-27T07:21:08.279Z,-0.20
2022-11-27T07:23:35.256Z,-0.10
2022-11-27T07:26:11.629Z,0.00
2022-11-27T07:28:38.516Z,0.00
2022-11-27T07:31:05.372Z,-0.10
2022-11-27T07:33:32.375Z,-0.20
2022-11-27T07:35:59.802Z,-0.20
2022-11-27T07:38:26.425Z,-0.10
2022-11-27T07:40:54.023Z,-0.10
2022-11-27T07:43:20.679Z,-0.10
2022-11-27T07:45:47.400Z,0.00
2022-11-27T07:48:13.946Z,0.10
2022-11-27T07:50:40.929Z,0.20
2022-11-27T07:53:07.476Z,0.30
2022-11-27T07:55:34.075Z,0.30
2022-11-27T07:58:00.592Z,0.20
2022-11-27T08:00:27.158Z,0.20
2022-11-27T08:02:53.945Z,0.20
2022-11-27T08:05:20.543Z,0.30
2022-11-27T08:07:47.141Z,0.30
2022-11-27T08:10:13.866Z,0.30
2022-11-27T08:12:40.433Z,0.40
2022-11-27T08:15:07.514Z,0.60
2022-11-27T08:17:34.086Z,0.60
2022-11-27T08:20:01.665Z,0.60
2022-11-27T08:22:28.235Z,0.60
2022-11-27T08:24:54.993Z,0.70
2022-11-27T08:27:21.538Z,0.70
2022-11-27T08:29:48.233Z,0.70
2022-11-27T08:32:14.821Z,0.80
2022-11-27T08:34:41.549Z,0.90
2022-11-27T08:37:08.415Z,0.90
2022-11-27T08:39:35.228Z,1.00
2022-11-27T08:42:01.733Z,1.10
2022-11-27T08:44:28.275Z,1.10
2022-11-27T08:46:54.812Z,1.20
2022-11-27T08:49:21.439Z,1.30
2022-11-27T08:51:48.020Z,1.30
2022-11-27T08:54:14.715Z,1.40
2022-11-27T08:56:41.229Z,1.50
2022-11-27T08:59:08.806Z,1.50
2022-11-27T09:01:35.676Z,1.60
2022-11-27T09:04:02.425Z,1.60
2022-11-27T09:06:30.355Z,1.70
2022-11-27T09:08:57.645Z,1.80
2022-11-27T09:11:24.325Z,1.90
2022-11-27T09:13:51.111Z,2.00
2022-11-27T09:16:19.120Z,2.00
2022-11-27T09:18:46.794Z,2.10
2022-11-27T09:21:14.556Z,2.20
2022-11-27T09:23:41.225Z,2.20
2022-11-27T09:26:10.112Z,2.30
2022-11-27T09:28:37.265Z,2.40
2022-11-27T09:31:04.767Z,2.40
2022-11-27T09:33:32.082Z,2.50
2022-11-27T09:35:58.802Z,2.60
2022-11-27T09:38:25.320Z,2.70
2022-11-27T09:41:03.126Z,2.80
2022-11-27T09:43:31.592Z,2.80
2022-11-27T09:46:01.624Z,2.90
2022-11-27T09:48:33.427Z,3.00
2022-11-27T09:51:00.487Z,3.10
2022-11-27T09:53:42.319Z,3.20
2022-11-27T09:56:11.365Z,3.20
2022-11-27T09:58:37.894Z,3.40
2022-11-27T10:01:12.078Z,3.40
2022-11-27T10:03:40.797Z,3.40
2022-11-27T10:06:28.023Z,3.40
2022-11-27T10:08:57.599Z,3.50
2022-11-27T10:11:44.427Z,3.60
2022-11-27T10:14:19.867Z,3.70
2022-11-27T10:16:58.944Z,3.80
2022-11-27T10:19:36.105Z,3.90
2022-11-27T10:22:09.875Z,4.00
2022-11-27T10:24:45.717Z,4.20
2022-11-27T10:27:17.764Z,4.30
2022-11-27T10:29:50.308Z,4.40
2022-11-27T10:32:52.878Z,4.40
2022-11-27T10:35:10.683Z,4.50
2022-11-27T10:37:37.173Z,4.50
2022-11-27T10:40:06.955Z,4.60
2022-11-27T10:42:34.741Z,4.70
2022-11-27T10:45:02.926Z,4.70
2022-11-27T10:47:33.695Z,4.60
2022-11-27T10:50:00.575Z,4.70
2022-11-27T10:52:27.235Z,4.80
2022-11-27T10:54:58.620Z,4.80
2022-11-27T10:57:34.292Z,4.90
2022-11-27T11:00:05.331Z,4.90
2022-11-27T11:02:33.383Z,5.00
2022-11-27T11:05:34.582Z,5.00
2022-11-27T11:07:57.405Z,5.00
2022-11-27T11:10:27.285Z,5.10
2022-11-27T11:13:03.976Z,5.10
2022-11-27T11:15:31.449Z,5.20
2022-11-27T11:17:57.983Z,5.20
2022-11-27T11:20:25.081Z,5.20
2022-11-27T11:22:51.812Z,5.30
2022-11-27T11:25:19.443Z,5.30
2022-11-27T11:27:47.115Z,5.40
2022-11-27T11:30:24.118Z,5.50
2022-11-27T11:32:51.074Z,5.60
2022-11-27T11:35:26.439Z,5.70
2022-11-27T11:37:53.379Z,5.70
2022-11-27T11:40:19.908Z,5.80
2022-11-27T11:42:54.243Z,5.90
2022-11-27T11:45:21.465Z,5.90
2022-11-27T11:47:55.655Z,5.90
2022-11-27T11:50:29.954Z,5.90
2022-11-27T11:53:02.445Z,5.80
2022-11-27T11:55:47.913Z,5.70
2022-11-27T11:58:33.520Z,5.60
2022-11-27T12:01:25.885Z,5.60
2022-11-27T12:03:59.992Z,5.60
2022-11-27T12:07:02.152Z,5.50
2022-11-27T12:09:51.839Z,5.50
2022-11-27T12:12:41.692Z,5.50
2022-11-27T12:15:43.867Z,5.50
2022-11-27T12:18:23.407Z,5.50
2022-11-27T12:20:49.921Z,5.60
2022-11-27T12:23:36.683Z,5.60
2022-11-27T12:26:04.816Z,5.70
2022-11-27T12:28:34.444Z,5.80
2022-11-27T12:31:07.365Z,5.90
2022-11-27T12:33:52.683Z,5.90
2022-11-27T12:36:19.319Z,5.90
2022-11-27T12:38:52.997Z,5.90
2022-11-27T12:41:28.572Z,6.00
2022-11-27T12:44:00.163Z,5.90
2022-11-27T12:46:38.610Z,5.90
2022-11-27T12:49:10.259Z,5.90
2022-11-27T12:51:44.071Z,5.90
2022-11-27T12:54:16.691Z,5.90
2022-11-27T12:56:50.516Z,5.90
2022-11-27T12:59:42.527Z,5.90
2022-11-27T13:02:09.198Z,5.90
2022-11-27T13:04:39.668Z,5.90
2022-11-27T13:07:09.749Z,5.90
2022-11-27T13:09:36.265Z,5.90
2022-11-27T13:12:03.469Z,5.90
2022-11-27T13:14:30.936Z,5.90
2022-11-27T13:17:05.128Z,5.90
2022-11-27T13:19:33.560Z,5.90
2022-11-27T13:22:00.896Z,5.90
2022-11-27T13:24:28.585Z,5.90
2022-11-27T13:26:58.372Z,5.90
2022-11-27T13:29:27.612Z,5.90
2022-11-27T13:31:58.897Z,5.80
2022-11-27T13:34:27.220Z,5.80
2022-11-27T13:37:01.756Z,5.70
2022-11-27T13:39:34.229Z,5.70
2022-11-27T13:42:21.647Z,5.60
2022-11-27T13:44:56.206Z,5.60
2022-11-27T13:47:24.896Z,5.60
2022-11-27T13:49:58.752Z,5.50
2022-11-27T13:52:25.342Z,5.50
2022-11-27T13:55:10.134Z,5.50
2022-11-27T13:57:38.441Z,5.50
2022-11-27T14:00:13.109Z,5.40
2022-11-27T14:02:50.716Z,5.40
2022-11-27T14:05:18.753Z,5.30
2022-11-27T14:07:49.614Z,5.30
2022-11-27T14:10:18.393Z,5.30
2022-11-27T14:12:55.693Z,5.30
2022-11-27T14:15:24.223Z,5.20
2022-11-27T14:17:52.338Z,5.20
2022-11-27T14:20:21.259Z,5.20
2022-11-27T14:23:10.603Z,5.20
2022-11-27T14:25:38.374Z,5.20
2022-11-27T14:28:21.959Z,5.10
2022-11-27T14:31:01.231Z,5.10
2022-11-27T14:33:47.329Z,5.10
2022-11-27T14:36:22.889Z,5.00
2022-11-27T14:38:49.572Z,5.00
2022-11-27T14:41:17.919Z,4.90
2022-11-27T14:43:44.497Z,4.90
2022-11-27T14:46:16.147Z,4.90
2022-11-27T14:48:50.990Z,4.80
2022-11-27T14:51:19.108Z,4.80
2022-11-27T14:53:49.986Z,4.80
2022-11-27T14:56:16.955Z,4.70
2022-11-27T14:58:48.116Z,4.60
2022-11-27T15:01:22.121Z,4.60
2022-11-27T15:03:59.442Z,4.50
2022-11-27T15:06:32.799Z,4.40
2022-11-27T15:09:29.649Z,4.30
2022-11-27T15:11:56.245Z,4.20
2022-11-27T15:14:23.794Z,4.10
2022-11-27T15:16:51.487Z,3.90
2022-11-27T15:19:27.238Z,3.90
2022-11-27T15:21:53.981Z,3.80
2022-11-27T15:24:28.292Z,3.70
2022-11-27T15:26:54.936Z,3.60
2022-11-27T15:29:40.807Z,3.50
2022-11-27T15:32:23.703Z,3.40
2022-11-27T15:34:50.909Z,3.40
2022-11-27T15:37:24.732Z,3.20
2022-11-27T15:39:52.624Z,3.20
2022-11-27T15:42:19.821Z,3.10
2022-11-27T15:44:46.966Z,3.00
2022-11-27T15:47:19.622Z,3.00
2022-11-27T15:49:46.247Z,2.90
2022-11-27T15:52:12.752Z,2.80
2022-11-27T15:54:39.525Z,2.80
2022-11-27T15:57:06.320Z,2.80
2022-11-27T15:59:32.867Z,2.80
2022-11-27T16:01:59.470Z,2.70
2022-11-27T16:04:26.080Z,2.70
2022-11-27T16:06:52.618Z,2.70
2022-11-27T16:09:19.123Z,2.70
2022-11-27T16:11:45.799Z,2.70
2022-11-27T16:14:12.576Z,2.80
2022-11-27T16:16:39.208Z,2.80
2022-11-27T16:19:06.582Z,2.70
2022-11-27T16:21:34.052Z,2.60
2022-11-27T16:24:02.432Z,2.60
2022-11-27T16:26:29.050Z,2.50
2022-11-27T16:28:55.673Z,2.50
2022-11-27T16:31:22.877Z,2.50
2022-11-27T16:33:49.585Z,2.40
2022-11-27T16:36:17.230Z,2.40
2022-11-27T16:38:43.978Z,2.40
2022-11-27T16:41:12.064Z,2.40
2022-11-27T16:43:40.389Z,2.40
2022-11-27T16:46:30.293Z,2.50
2022-11-27T16:48:58.808Z,2.50
2022-11-27T16:51:28.465Z,2.50
2022-11-27T16:53:56.151Z,2.50
2022-11-27T16:56:24.301Z,2.50
2022-11-27T16:58:51.484Z,2.50
2022-11-27T17:01:20.191Z,2.50
2022-11-27T17:03:46.894Z,2.50
2022-11-27T17:06:14.820Z,2.60
2022-11-27T17:08:41.702Z,2.60
2022-11-27T17:11:09.296Z,2.60
2022-11-27T17:13:35.931Z,2.60
2022-11-27T17:16:03.167Z,2.60
2022-11-27T17:18:29.765Z,2.60
2022-11-27T17:21:02.981Z,2.60
2022-11-27T17:23:29.642Z,2.50
2022-11-27T17:25:56.382Z,2.60
2022-11-27T17:28:23.141Z,2.60
2022-11-27T17:30:49.908Z,2.60
2022-11-27T17:33:16.427Z,2.70
2022-11-27T17:35:42.960Z,2.80
2022-11-27T17:38:09.617Z,2.80
2022-11-27T17:40:36.228Z,2.80
2022-11-27T17:43:02.793Z,2.80
2022-11-27T17:45:29.374Z,2.80
2022-11-27T17:47:55.919Z,2.90
2022-11-27T17:50:22.571Z,2.90
2022-11-27T17:52:51.979Z,2.90
2022-11-27T17:55:18.776Z,3.00
2022-11-27T17:57:45.299Z,3.00
2022-11-27T18:00:12.735Z,3.10
2022-11-27T18:02:39.421Z,3.10
2022-11-27T18:05:06.259Z,3.10
2022-11-27T18:07:35.776Z,3.20
2022-11-27T18:10:02.401Z,3.20
2022-11-27T18:12:28.903Z,3.20
2022-11-27T18:15:01.084Z,3.20
2022-11-27T18:17:28.861Z,3.20
2022-11-27T18:19:57.105Z,3.20
2022-11-27T18:22:24.103Z,3.20
2022-11-27T18:24:50.681Z,3.10
2022-11-27T18:27:17.735Z,3.10
2022-11-27T18:29:45.146Z,3.00
2022-11-27T18:32:12.555Z,3.00
2022-11-27T18:34:39.461Z,2.90
2022-11-27T18:37:06.164Z,2.80
2022-11-27T18:39:32.960Z,2.80
2022-11-27T18:41:59.655Z,2.70
2022-11-27T18:44:26.792Z,2.70
2022-11-27T18:46:53.491Z,2.60
2022-11-27T18:49:22.675Z,2.60
2022-11-27T18:51:50.273Z,2.50
2022-11-27T18:54:17.017Z,2.50
2022-11-27T18:56:43.568Z,2.50
2022-11-27T18:59:10.129Z,2.40
2022-11-27T19:01:42.015Z,2.40
2022-11-27T19:04:09.620Z,2.40
2022-11-27T19:06:36.723Z,2.30
2022-11-27T19:09:03.623Z,2.30
2022-11-27T19:11:30.909Z,2.20
2022-11-27T19:13:58.090Z,2.30
2022-11-27T19:16:26.831Z,2.20
2022-11-27T19:18:55.556Z,2.20
2022-11-27T19:21:23.337Z,2.20
2022-11-27T19:23:51.035Z,2.10
2022-11-27T19:26:19.495Z,2.10
2022-11-27T19:28:50.163Z,2.00
2022-11-27T19:31:16.819Z,1.90
2022-11-27T19:33:43.680Z,1.90
2022-11-27T19:36:12.201Z,1.90
2022-11-27T19:38:40.338Z,1.80
2022-11-27T19:41:10.650Z,1.70
2022-11-27T19:43:37.230Z,1.70
2022-11-27T19:46:12.418Z,1.80
2022-11-27T19:48:39.315Z,1.80
2022-11-27T19:51:05.940Z,1.70
2022-11-27T19:53:33.444Z,1.70
2022-11-27T19:56:00.277Z,1.70
2022-11-27T19:58:27.060Z,1.70
2022-11-27T20:00:53.960Z,1.70
2022-11-27T20:03:20.900Z,1.60
2022-11-27T20:05:47.456Z,1.60
2022-11-27T20:08:14.029Z,1.60
2022-11-27T20:10:40.543Z,1.60
2022-11-27T20:13:07.074Z,1.50
2022-11-27T20:15:33.757Z,1.50
2022-11-27T20:18:00.332Z,1.50
2022-11-27T20:20:31.361Z,1.50
2022-11-27T20:23:00.527Z,1.50
2022-11-27T20:25:27.382Z,1.50
2022-11-27T20:27:53.942Z,1.40
2022-11-27T20:30:20.592Z,1.40
2022-11-27T20:32:47.348Z,1.30
2022-11-27T20:35:15.156Z,1.30
2022-11-27T20:37:41.674Z,1.30
2022-11-27T20:40:08.406Z,1.30
2022-11-27T20:42:35.076Z,1.20
2022-11-27T20:45:05.030Z,1.20
2022-11-27T20:47:31.831Z,1.20
2022-11-27T20:49:58.472Z,1.30
2022-11-27T20:52:24.984Z,1.20
2022-11-27T20:54:51.647Z,1.20
2022-11-27T20:57:18.256Z,1.20
2022-11-27T20:59:44.822Z,1.30
2022-11-27T21:02:12.072Z,1.20
2022-11-27T21:04:38.710Z,1.20
2022-11-27T21:07:05.476Z,1.20
2022-11-27T21:09:32.409Z,1.20
2022-11-27T21:11:59.279Z,1.10
2022-11-27T21:14:25.961Z,1.10
2022-11-27T21:16:53.822Z,1.30
2022-11-27T21:19:21.863Z,1.20
2022-11-27T21:21:48.944Z,1.10
2022-11-27T21:24:15.766Z,1.10
2022-11-27T21:26:43.004Z,1.10
2022-11-27T21:29:10.131Z,1.10
2022-11-27T21:31:37.874Z,1.00
2022-11-27T21:34:11.373Z,1.00
2022-11-27T21:36:38.571Z,1.10
2022-11-27T21:39:07.273Z,1.10
2022-11-27T21:41:34.273Z,1.10
2022-11-27T21:44:01.555Z,1.20
2022-11-27T21:46:29.008Z,1.20
2022-11-27T21:48:57.024Z,1.10
2022-11-27T21:51:25.727Z,1.10
2022-11-27T21:53:53.309Z,1.10
2022-11-27T21:56:20.413Z,1.10
2022-11-27T21:58:47.079Z,1.10
2022-11-27T22:01:16.032Z,1.00
2022-11-27T22:03:43.185Z,1.00
2022-11-27T22:06:14.702Z,1.00
2022-11-27T22:08:45.346Z,1.00
2022-11-27T22:11:13.210Z,1.00
2022-11-27T22:13:41.162Z,1.00
2022-11-27T22:16:08.664Z,1.00
2022-11-27T22:18:35.553Z,1.00
2022-11-27T22:21:09.437Z,0.90
2022-11-27T22:23:36.351Z,0.90
2022-11-27T22:26:03.843Z,1.00
2022-11-27T22:28:30.732Z,1.00
2022-11-27T22:30:57.904Z,1.00
2022-11-27T22:33:24.618Z,1.00
2022-11-27T22:35:51.309Z,1.10
2022-11-27T22:38:17.881Z,1.10
2022-11-27T22:40:44.414Z,1.10
2022-11-27T22:43:10.974Z,1.20
2022-11-27T22:45:38.648Z,1.20
2022-11-27T22:48:05.550Z,1.20
2022-11-27T22:50:32.086Z,1.30
2022-11-27T22:52:58.638Z,1.30
2022-11-27T22:55:25.282Z,1.30
2022-11-27T22:57:51.901Z,1.30
2022-11-27T23:03:09.382Z,1.40
2022-11-27T23:05:35.917Z,1.50
2022-11-27T23:08:02.514Z,1.60
2022-11-27T23:10:29.283Z,1.50
2022-11-27T23:12:56.480Z,1.60
2022-11-27T23:15:26.718Z,1.60
2022-11-27T23:17:53.372Z,1.60
2022-11-27T23:20:19.952Z,1.60
2022-11-27T23:22:46.513Z,1.60
2022-11-27T23:25:13.007Z,1.70
2022-11-27T23:27:39.878Z,1.70
2022-11-27T23:30:06.910Z,1.60
2022-11-27T23:32:33.512Z,1.60
2022-11-27T23:35:00.166Z,1.60
2022-11-27T23:37:27.735Z,1.60
2022-11-27T23:39:54.468Z,1.60
2022-11-27T23:42:20.990Z,1.60
2022-11-27T23:44:47.517Z,1.60
2022-11-27T23:47:14.164Z,1.60
2022-11-27T23:49:41.734Z,1.60
2022-11-27T23:52:11.904Z,1.60
2022-11-27T23:54:42.717Z,1.70
2022-11-27T23:57:09.743Z,1.70
2022-11-27T23:59:36.290Z,1.70
